createdAt,value
2022-11-30T00:01:29.023Z,51.30
2022-11-30T00:23:14.749Z,49.80
2022-11-30T00:45:00.443Z,50.50
2022-11-30T01:06:46.136Z,49.50
2022-11-30T01:34:25.500Z,47.50
2022-11-30T01:56:11.543Z,55.80
2022-11-30T02:18:05.989Z,58.70
2022-11-30T02:39:51.750Z,55.00
2022-11-30T03:01:37.693Z,63.50
2022-11-30T03:23:23.560Z,57.90
2022-11-30T03:45:10.680Z,62.00
2022-11-30T04:06:56.392Z,53.30
2022-11-30T04:28:42.802Z,56.30
2022-11-30T04:50:28.692Z,55.00
2022-11-30T05:34:13.095Z,48.50
2022-11-30T05:56:02.276Z,49.10
2022-11-30T06:34:47.556Z,50.30
2022-11-30T06:56:30.988Z,46.40
2022-11-30T07:18:13.927Z,46.90
2022-11-30T07:39:56.863Z,47.40
2022-11-30T08:01:39.982Z,44.70
2022-11-30T08:23:23.132Z,44.10
2022-11-30T08:45:08.447Z,43.60
2022-11-30T09:06:51.481Z,41.50
2022-11-30T09:34:27.007Z,42.90
2022-11-30T09:56:24.700Z,40.80
2022-11-30T10:18:18.321Z,40.30
2022-11-30T10:40:09.764Z,39.00
2022-11-30T11:01:55.614Z,40.20
2022-11-30T11:34:27.228Z,38.40
2022-11-30T11:56:19.564Z,37.10
2022-11-30T12:18:17.218Z,36.40
2022-11-30T12:40:19.245Z,32.60
2022-11-30T13:02:28.031Z,30.90
2022-11-30T13:24:18.343Z,33.60
2022-11-30T13:46:24.401Z,30.10
2022-11-30T14:08:41.859Z,26.50
2022-11-30T14:30:28.269Z,31.80
2022-11-30T14:52:20.510Z,32.50
2022-11-30T15:14:17.956Z,34.70
2022-11-30T15:36:32.464Z,35.50
2022-11-30T15:58:28.464Z,34.20
2022-11-30T16:20:17.032Z,34.80
2022-11-30T16:42:03.113Z,35.60
2022-11-30T17:03:54.069Z,35.20
2022-11-30T17:25:39.897Z,34.90
2022-11-30T17:47:26.656Z,38.80
2022-11-30T18:09:12.808Z,32.30
2022-11-30T18:30:59.143Z,34.10
2022-11-30T18:52:45.014Z,33.00
2022-11-30T19:36:19.216Z,33.80
2022-11-30T19:58:06.486Z,32.90
2022-11-30T20:19:52.613Z,33.10
2022-11-30T20:41:38.977Z,31.70
2022-11-30T21:03:24.829Z,33.00
2022-11-30T21:46:55.464Z,33.50
2022-11-30T22:08:41.853Z,34.90
2022-11-30T22:30:27.554Z,35.60
2022-11-30T22:52:13.604Z,32.20
2022-11-30T23:13:59.831Z,33.10
2022-11-30T23:35:46.548Z,35.40
2022-11-30T23:57:32.386Z,31.20
